Silver Lake, MN (55381)

11:42 AM CST on December 19, 2014 (GMT -0600)
Winsted Township | Change Station
CLOSE
Current Station
Personal Weather Station
Location: Winsted, MN
Elevation: 1027 ft
Nearby Weather Stations

Elev 1027 ft 44.96 °N, 94.07 °W | Updated 14 minutes ago

Overcast
Overcast
27.3 °F
Feels Like 27 °F
N
0.0
Wind Variable Wind from SSE

Today
High -- | Low -- °F
--% Chance of Precip.
Yesterday
High -- | Low -- °F
Precip. -- in
7:50 AM 4:37 PM
Waning Crescent, 7% visible
Pressure 30.19 in
Visibility 4.0 miles
Clouds Overcast 600 ft
Windchill 27 °F
Dew Point 24 °F
Humidity 89%
Rainfall 0.00 in
Snow Depth Not available.
UV 1 out of 12
Pollen .10 out of 12
Air Quality Not available.
Flu Activity Not available.
METAR KHCD 191733Z AUTO 14007KT 4SM BR OVC006 M01/M02 A3019 RMK AO2 T10151025

More Conditions Fewer Conditions

Pressure 30.19 in
Visibility 4.0 miles
Clouds Overcast 600 ft
Windchill 27 °F
Dew Point 24 °F
Humidity 89%
Rainfall 0.00 in
Snow Depth Not available.
UV 1 out of 12
Pollen .10 out of 12
Air Quality Not available.
Flu Activity Not available.
METAR KHCD 191733Z AUTO 14007KT 4SM BR OVC006 M01/M02 A3019 RMK AO2 T10151025

More Conditions Fewer Conditions

10-Day Weather Forecast

Almanac

Astronomy

Dec. 19, 2014 Rise Set
Actual Time
Civil Twilight
Nautical Twilight
Astronomical Twilight
Moon
Length of Visible Light
Length of Day
Tomorrow will be .
, % of the Moon is Illuminated

Today's Extremes

State Highs State Lows

Community

WunderPhotos

Upload Photos

1,779,009 photos uploaded!

WunderBlogs® & News

Nearby

Air Quality

  Air Quality AQ Index Pollutant
Not available.

Snow Depth

Station Depth Elevation

Earthquake Activity

City Distance Mag. Time & Date
Minimum magnitude displayed is 2.5.

Coastal Water Temperatures

Place Temperature

Nearby Weather Stations